Memphis, Indiana
Current Conditions -  °F | °C
As of 7:53 PM on Monday 24 Nov 2014 (Local Time) from KLOU Reporting Station
Broken Clouds Broken Clouds  
Wind Chill: 43°   Ceiling: 6000
Heat Index: 47°   Visibility: 10mi
Dew Point: 32°   Wind: 8mph
Humidity: 56%   Direction: 240°WSW
Pressure: 29.9"   Gusts: NA
Location:  38.47°N, 85.77°W
Report Text: KLOU 250053Z 24007KT 10SM BKN060 08/00 A2990 RMK AO2 SLP125 T00830000
Loading
Personal Weather Stations






























Interactive Weather Map New forecast layout! Learn more

10-Day Weather Forecast

Advertisements
Track Severe Weather on mobile